Central Victoria, Mexico

10:51 PM EST on February 21, 2017 (GMT -0500)
Puerto Aventuras | | Change Station

Elev 16 ft 20.51 °N, 87.22 °W | Updated 7 minutes ago

Mostly Cloudy
Mostly Cloudy
80.4 °F
Feels Like 86 °F
N
0.6
Wind Variable Wind from East

Today
High -- | Low -- °F
--% Chance of Precip.
Yesterday
High -- | Low -- °F
Precip. -- in
Pressure 29.91 in
Visibility 7.0 miles
Clouds Few 1500 ft
Heat Index 86 °F
Dew Point 73 °F
Humidity 83%
Rainfall Not available.
Snow Depth Not available.
7:15 AM 6:50 PM
Waning Crescent, 20% visible
METAR MMCZ 220247Z 17006KT 7SM FEW015 25/22 A2989 RMK SLP126 57003 989 8/500
Pressure 29.91 in
Visibility 7.0 miles
Clouds Few 1500 ft
Heat Index 86 °F
Dew Point 73 °F
Humidity 83%
Rainfall Not available.
Snow Depth Not available.
7:15 AM 6:50 PM
Waning Crescent, 20% visible
METAR MMCZ 220247Z 17006KT 7SM FEW015 25/22 A2989 RMK SLP126 57003 989 8/500

Get Your Daily Forecast Email!

Thanks for signing up!

Be on the lookout for a verification email in your inbox.

You'll start receiving the daily forecast at 8 AM.

×

10-Day Weather Forecast

No radar image for this location.
×

Almanac

Astronomy

Feb. 21, 2017 Rise Set
Actual Time
Civil Twilight
Nautical Twilight
Astronomical Twilight
Moon
Length of Visible Light
Length of Day
Tomorrow will be .
, % of the Moon is Illuminated

Today's Extremes

Country Highs Country Lows

Community

WunderPhotos

Upload Photos

1,962,540 photos uploaded!

WunderBlog® & News

Nearby

Air Quality

  Air Quality AQ Index Pollutant
Not available.

Snow Depth

Station Depth Elevation

Earthquake Activity

City Distance Mag. Time & Date
Minimum magnitude displayed is 2.5.

Coastal Water Temperatures

Place Temperature

Stations

Nearby Weather Stations

Station Location Temp. Windchill Dew Point Humidity Wind Precip. Elev Updated Type